Time;durP1;ratioP1;P1;durP2;ratioP2;P2;SDS_P1;SDS_P2;PMS_P1;PMS_P2;Temp;Humidity;BMP_temperature;BMP_pressure;BME280_temperature;BME280_humidity;BME280_pressure;Samples;Min_cycle;Max_cycle;Signal;HPM_P1;HPM_P2
2022/01/09 00:01:31;;;;;;;1.00;0.90;;;4.10;99.90;;;;;;5046873;28;20201;-79
2022/01/09 00:03:58;;;;;;;1.17;0.80;;;4.10;99.90;;;;;;5034779;28;20211;-79
2022/01/09 00:06:25;;;;;;;1.80;0.90;;;4.20;99.90;;;;;;5034240;28;20628;-80
2022/01/09 00:08:52;;;;;;;0.90;0.70;;;4.20;99.90;;;;;;5024229;28;20315;-79
2022/01/09 00:11:26;;;;;;;0.77;0.77;;;4.20;99.90;;;;;;5018403;28;20203;-79
2022/01/09 00:13:54;;;;;;;1.17;1.08;;;4.20;99.90;;;;;;5032146;28;20649;-79
2022/01/09 00:16:23;;;;;;;0.98;0.60;;;4.30;99.90;;;;;;5024339;28;20760;-79
2022/01/09 00:18:50;;;;;;;0.70;0.70;;;4.30;99.90;;;;;;5031203;28;20307;-80
2022/01/09 00:21:18;;;;;;;3.05;1.00;;;4.30;99.90;;;;;;5027991;28;20190;-79
2022/01/09 00:23:46;;;;;;;0.70;0.60;;;4.40;99.90;;;;;;5020706;28;20237;-79
2022/01/09 00:26:13;;;;;;;0.80;0.60;;;4.40;99.90;;;;;;5029642;28;20684;-79
2022/01/09 00:28:40;;;;;;;0.73;0.65;;;4.40;99.90;;;;;;5029898;28;20227;-79
2022/01/09 00:31:08;;;;;;;0.60;0.60;;;4.40;99.90;;;;;;5013806;28;20462;-79
2022/01/09 00:33:36;;;;;;;0.80;0.75;;;4.40;99.90;;;;;;5032475;28;20201;-79
2022/01/09 00:36:03;;;;;;;0.60;0.50;;;4.40;99.90;;;;;;5031427;28;20197;-79
2022/01/09 00:38:30;;;;;;;0.90;0.80;;;4.50;99.90;;;;;;5026207;28;20263;-79
2022/01/09 00:40:58;;;;;;;0.70;0.60;;;4.50;99.90;;;;;;5030320;28;20205;-80
2022/01/09 00:43:25;;;;;;;0.70;0.60;;;4.50;99.90;;;;;;5031275;28;20228;-79
2022/01/09 00:45:52;;;;;;;1.40;0.70;;;4.50;99.90;;;;;;5031309;28;20204;-80
2022/01/09 00:48:21;;;;;;;1.30;0.60;;;4.50;99.90;;;;;;5030689;28;20324;-80
2022/01/09 00:50:48;;;;;;;0.77;0.60;;;4.40;99.90;;;;;;5019126;28;20287;-80
2022/01/09 00:53:15;;;;;;;0.60;0.50;;;4.40;99.90;;;;;;5014477;28;20549;-80
2022/01/09 00:55:42;;;;;;;0.60;0.55;;;4.40;99.90;;;;;;5012648;28;20260;-80
2022/01/09 00:58:09;;;;;;;0.70;0.50;;;4.40;99.90;;;;;;5016890;28;20754;-79
2022/01/09 01:00:39;;;;;;;0.68;0.50;;;4.40;99.90;;;;;;5031358;28;20201;-80
2022/01/09 01:03:07;;;;;;;0.70;0.57;;;4.40;99.90;;;;;;5031103;28;20213;-79
2022/01/09 01:05:35;;;;;;;0.60;0.50;;;4.40;99.90;;;;;;5035865;28;20224;-79
2022/01/09 01:08:02;;;;;;;0.60;0.60;;;4.30;99.90;;;;;;5033833;28;20233;-80
2022/01/09 01:10:29;;;;;;;0.85;0.60;;;4.30;99.90;;;;;;5034872;28;20221;-80
2022/01/09 01:12:56;;;;;;;0.60;0.50;;;4.30;99.90;;;;;;5035667;28;20224;-80
2022/01/09 01:15:23;;;;;;;0.60;0.50;;;4.30;99.90;;;;;;5034387;28;20225;-80
2022/01/09 01:17:50;;;;;;;0.80;0.50;;;4.30;99.90;;;;;;5031158;28;20228;-81
2022/01/09 01:20:21;;;;;;;0.70;0.60;;;4.40;99.90;;;;;;5035062;28;20207;-79
2022/01/09 01:22:51;;;;;;;1.08;0.50;;;4.40;99.90;;;;;;5035684;28;20200;-79
2022/01/09 01:25:19;;;;;;;0.60;0.50;;;4.40;99.90;;;;;;5035025;28;20229;-80
2022/01/09 01:27:46;;;;;;;0.65;0.50;;;4.40;99.90;;;;;;5034428;28;20592;-79
2022/01/09 01:30:14;;;;;;;0.50;0.40;;;4.40;99.90;;;;;;5029134;28;20193;-79
2022/01/09 01:32:42;;;;;;;0.90;0.55;;;4.50;99.90;;;;;;5035041;28;20288;-79
2022/01/09 01:35:11;;;;;;;0.50;0.40;;;4.50;99.90;;;;;;5034969;28;20190;-79
2022/01/09 01:37:41;;;;;;;0.52;0.50;;;4.60;99.90;;;;;;5030489;28;20228;-79
2022/01/09 01:40:12;;;;;;;1.15;0.60;;;4.60;99.90;;;;;;5024615;28;20604;-80
2022/01/09 01:42:40;;;;;;;0.50;0.40;;;4.60;99.90;;;;;;5033899;28;20229;-79
2022/01/09 01:45:08;;;;;;;0.50;0.40;;;4.70;99.90;;;;;;5033441;28;20196;-79
2022/01/09 01:47:36;;;;;;;0.60;0.50;;;4.70;99.90;;;;;;5032508;28;20233;-79
2022/01/09 01:50:05;;;;;;;0.63;0.47;;;4.70;99.90;;;;;;5034093;28;20190;-79
2022/01/09 01:52:37;;;;;;;0.70;0.50;;;4.80;99.90;;;;;;5030383;28;20193;-79
2022/01/09 01:55:05;;;;;;;0.80;0.50;;;4.80;99.90;;;;;;5027325;28;20189;-83
2022/01/09 01:57:33;;;;;;;0.60;0.50;;;4.80;99.90;;;;;;5024506;28;20317;-79
2022/01/09 02:00:00;;;;;;;0.50;0.50;;;4.90;99.90;;;;;;5033662;28;20194;-79
2022/01/09 02:02:27;;;;;;;0.60;0.50;;;4.90;99.90;;;;;;5033962;28;20197;-79
2022/01/09 02:04:55;;;;;;;0.60;0.50;;;4.90;99.90;;;;;;5032053;28;20451;-79
2022/01/09 02:07:24;;;;;;;0.60;0.40;;;4.90;99.90;;;;;;5032421;28;20255;-80
2022/01/09 02:09:51;;;;;;;0.60;0.40;;;4.90;99.90;;;;;;5032174;28;20189;-79
2022/01/09 02:12:18;;;;;;;0.60;0.50;;;5.00;99.90;;;;;;5034301;28;20291;-79
2022/01/09 02:14:48;;;;;;;1.05;0.40;;;5.00;99.90;;;;;;5033657;28;20645;-79
2022/01/09 02:17:18;;;;;;;0.70;0.45;;;5.00;99.90;;;;;;5031224;28;20650;-79
2022/01/09 02:19:53;;;;;;;0.70;0.50;;;5.10;99.90;;;;;;5029213;28;20248;-80
2022/01/09 02:22:21;;;;;;;1.05;0.50;;;5.10;99.90;;;;;;5026184;28;20211;-80
2022/01/09 02:24:48;;;;;;;0.60;0.50;;;5.10;99.90;;;;;;5033607;28;20197;-79
2022/01/09 02:27:15;;;;;;;0.50;0.47;;;5.10;99.90;;;;;;5033038;28;20217;-80
2022/01/09 02:29:42;;;;;;;0.50;0.40;;;5.20;99.90;;;;;;5028300;28;20247;-79
2022/01/09 02:32:09;;;;;;;0.60;0.40;;;5.20;99.90;;;;;;5023023;28;20198;-79
2022/01/09 02:34:36;;;;;;;0.50;0.40;;;5.20;99.90;;;;;;5020960;28;20225;-80
2022/01/09 02:37:05;;;;;;;0.60;0.40;;;5.10;99.90;;;;;;5032269;28;20232;-80
2022/01/09 02:39:32;;;;;;;0.60;0.40;;;5.10;99.90;;;;;;5034179;28;20280;-79
2022/01/09 02:41:59;;;;;;;0.60;0.50;;;5.10;99.90;;;;;;5034633;28;20202;-78
2022/01/09 02:44:26;;;;;;;0.60;0.50;;;5.10;99.90;;;;;;5037088;28;20653;-80
2022/01/09 02:47:01;;;;;;;0.60;0.47;;;5.10;99.90;;;;;;5028865;28;20214;-79
2022/01/09 02:49:29;;;;;;;0.60;0.50;;;5.00;99.90;;;;;;5025501;28;20224;-79
2022/01/09 02:51:58;;;;;;;1.00;0.40;;;5.00;99.90;;;;;;5028110;28;20201;-79
2022/01/09 02:57:10;;;;;;;0.50;0.40;;;5.00;99.90;;;;;;5029221;28;20287;-79
2022/01/09 02:59:38;;;;;;;0.63;0.50;;;5.00;99.90;;;;;;5017064;28;20205;-79
2022/01/09 03:02:05;;;;;;;0.50;0.40;;;5.10;99.90;;;;;;5032316;28;20275;-79
2022/01/09 03:04:32;;;;;;;0.50;0.43;;;5.10;99.90;;;;;;5029915;28;20201;-79
2022/01/09 03:06:59;;;;;;;0.50;0.40;;;5.10;99.90;;;;;;5029580;28;20756;-80
2022/01/09 03:09:27;;;;;;;0.65;0.43;;;5.10;99.90;;;;;;5031570;28;20221;-79
2022/01/09 03:11:54;;;;;;;0.60;0.50;;;5.10;99.90;;;;;;5033049;28;20251;-79
2022/01/09 03:14:21;;;;;;;0.70;0.40;;;5.10;99.90;;;;;;5032629;28;20192;-79
2022/01/09 03:16:48;;;;;;;0.65;0.50;;;5.10;99.90;;;;;;5032395;28;20304;-79
2022/01/09 03:19:17;;;;;;;0.60;0.50;;;5.10;99.90;;;;;;5031328;28;20657;-80
2022/01/09 03:21:43;;;;;;;0.70;0.50;;;5.10;99.90;;;;;;5025759;28;20196;-79
2022/01/09 03:24:10;;;;;;;0.50;0.40;;;5.00;99.90;;;;;;5027920;28;20248;-79
2022/01/09 03:26:39;;;;;;;1.60;0.55;;;5.00;99.90;;;;;;5031949;28;20312;-80
2022/01/09 03:29:06;;;;;;;0.70;0.65;;;4.90;99.90;;;;;;5030642;28;20642;-80
2022/01/09 03:31:32;;;;;;;0.70;0.40;;;5.00;99.90;;;;;;5029111;28;20198;-80
2022/01/09 03:33:59;;;;;;;0.50;0.50;;;4.80;99.90;;;;;;5031734;28;20204;-80
2022/01/09 03:36:26;;;;;;;0.65;0.52;;;4.70;99.90;;;;;;5029488;28;20832;-80
2022/01/09 03:38:53;;;;;;;0.60;0.50;;;4.70;99.90;;;;;;5030603;28;20701;-80
2022/01/09 03:41:21;;;;;;;0.50;0.40;;;4.70;99.90;;;;;;5030940;28;20193;-80
2022/01/09 03:43:49;;;;;;;0.60;0.47;;;4.70;99.90;;;;;;5032210;28;20229;-80
2022/01/09 03:46:16;;;;;;;1.15;0.60;;;4.70;99.90;;;;;;5032644;28;20296;-80
2022/01/09 03:48:43;;;;;;;0.63;0.47;;;4.80;99.90;;;;;;5028164;28;20312;-80
2022/01/09 03:51:10;;;;;;;1.70;0.55;;;4.80;99.90;;;;;;5032039;28;20571;-80
2022/01/09 03:53:39;;;;;;;1.13;0.60;;;4.70;99.90;;;;;;5031283;28;20576;-80
2022/01/09 03:56:07;;;;;;;0.60;0.60;;;4.70;99.90;;;;;;5024616;28;20723;-80
2022/01/09 03:58:35;;;;;;;0.60;0.60;;;4.70;99.90;;;;;;5031476;28;20629;-80
2022/01/09 04:01:06;;;;;;;0.70;0.60;;;4.70;99.90;;;;;;5026155;28;20211;-81
2022/01/09 04:03:34;;;;;;;0.60;0.50;;;4.60;99.90;;;;;;5031104;28;20223;-80
2022/01/09 04:06:01;;;;;;;0.60;0.50;;;4.60;99.90;;;;;;5032033;28;20231;-80
2022/01/09 04:08:28;;;;;;;1.92;0.57;;;4.70;99.90;;;;;;5029931;28;20244;-80
2022/01/09 04:10:56;;;;;;;1.92;0.60;;;4.60;99.90;;;;;;5025678;28;20193;-80
2022/01/09 04:13:23;;;;;;;0.70;0.57;;;4.60;99.90;;;;;;5032135;28;20194;-80
2022/01/09 04:15:50;;;;;;;0.77;0.50;;;4.60;99.90;;;;;;5031928;28;20217;-80
2022/01/09 04:18:20;;;;;;;0.60;0.50;;;4.60;99.90;;;;;;5026520;28;20204;-80
2022/01/09 04:20:48;;;;;;;0.50;0.50;;;4.60;99.90;;;;;;5028703;28;20199;-80
2022/01/09 04:23:15;;;;;;;0.60;0.50;;;4.70;99.90;;;;;;5030466;28;20189;-80
2022/01/09 04:25:44;;;;;;;0.70;0.50;;;4.70;99.90;;;;;;5030051;28;20217;-80
2022/01/09 04:28:11;;;;;;;0.70;0.68;;;4.70;99.90;;;;;;5028467;28;20226;-80
2022/01/09 04:30:38;;;;;;;0.50;0.40;;;4.60;99.90;;;;;;5025462;28;20220;-80
2022/01/09 04:33:05;;;;;;;0.55;0.40;;;4.60;99.90;;;;;;5029946;28;20188;-80
2022/01/09 04:35:33;;;;;;;0.70;0.40;;;4.70;99.90;;;;;;5031193;28;20714;-80
2022/01/09 04:38:00;;;;;;;0.60;0.52;;;4.60;99.90;;;;;;5028468;28;20660;-80
2022/01/09 04:40:27;;;;;;;1.05;0.50;;;4.70;99.90;;;;;;5023873;28;20189;-79
2022/01/09 04:42:57;;;;;;;0.63;0.50;;;4.60;99.90;;;;;;5027347;28;20719;-79
2022/01/09 04:45:26;;;;;;;0.70;0.50;;;4.60;99.90;;;;;;5023118;28;20217;-80
2022/01/09 04:47:55;;;;;;;0.70;0.50;;;4.60;99.90;;;;;;5025531;28;20197;-80
2022/01/09 04:50:25;;;;;;;0.60;0.50;;;4.60;99.90;;;;;;5027886;28;20235;-80
2022/01/09 04:53:00;;;;;;;0.50;0.40;;;4.60;99.90;;;;;;5024763;28;20202;-80
2022/01/09 04:55:27;;;;;;;0.88;0.50;;;4.50;99.90;;;;;;5030843;28;20991;-80
2022/01/09 04:57:54;;;;;;;0.60;0.40;;;4.50;99.90;;;;;;5028231;28;20204;-80
2022/01/09 05:00:22;;;;;;;1.55;0.40;;;4.40;99.90;;;;;;5030359;28;20199;-80
2022/01/09 05:02:49;;;;;;;0.50;0.40;;;4.40;99.90;;;;;;5026057;28;20633;-80
2022/01/09 05:05:17;;;;;;;0.50;0.40;;;4.30;99.90;;;;;;5030607;28;20258;-80
2022/01/09 05:07:44;;;;;;;0.50;0.40;;;4.20;99.90;;;;;;5026444;28;20252;-80
2022/01/09 05:10:13;;;;;;;0.50;0.40;;;4.20;99.90;;;;;;5030932;28;20691;-79
2022/01/09 05:12:40;;;;;;;0.80;0.40;;;4.20;99.90;;;;;;5030104;28;20205;-80
2022/01/09 05:15:09;;;;;;;0.80;0.40;;;4.10;99.90;;;;;;5030511;28;20270;-80
2022/01/09 05:17:37;;;;;;;0.50;0.40;;;4.10;99.90;;;;;;5029835;28;20205;-80
2022/01/09 05:20:05;;;;;;;0.50;0.40;;;4.10;99.90;;;;;;5030811;28;20202;-80
2022/01/09 05:22:33;;;;;;;1.02;0.50;;;4.00;99.90;;;;;;5023852;28;20201;-80
2022/01/09 05:25:02;;;;;;;0.50;0.40;;;4.00;99.90;;;;;;5030479;28;20197;-79
2022/01/09 05:27:30;;;;;;;0.47;0.40;;;3.90;99.90;;;;;;5025049;28;20196;-79
2022/01/09 05:29:57;;;;;;;0.60;0.40;;;3.80;99.90;;;;;;5026751;28;20247;-79
2022/01/09 05:32:24;;;;;;;0.50;0.40;;;3.80;99.90;;;;;;5026750;28;20228;-79
2022/01/09 05:34:51;;;;;;;0.60;0.50;;;3.70;99.90;;;;;;5030418;28;20208;-79
2022/01/09 05:37:18;;;;;;;0.47;0.40;;;3.60;99.90;;;;;;5030623;28;20227;-79
2022/01/09 05:39:46;;;;;;;0.70;0.40;;;3.60;99.90;;;;;;5022933;28;20279;-79
2022/01/09 05:42:14;;;;;;;0.50;0.40;;;3.50;99.90;;;;;;5026149;28;20328;-79
2022/01/09 05:44:42;;;;;;;0.50;0.40;;;3.50;99.90;;;;;;5030844;28;20207;-79
2022/01/09 05:47:09;;;;;;;0.60;0.40;;;3.40;99.90;;;;;;5032134;28;20274;-79
2022/01/09 05:49:36;;;;;;;1.10;0.50;;;3.40;99.90;;;;;;5034376;28;20222;-80
2022/01/09 05:52:04;;;;;;;1.08;1.00;;;3.50;99.90;;;;;;5033018;28;20252;-79
2022/01/09 05:54:31;;;;;;;0.70;0.50;;;3.50;99.90;;;;;;5030881;28;20198;-79
2022/01/09 05:56:58;;;;;;;1.20;0.50;;;3.50;99.90;;;;;;5028393;28;20698;-79
2022/01/09 05:59:25;;;;;;;0.90;0.60;;;3.50;99.90;;;;;;5033169;28;20195;-79
2022/01/09 06:01:55;;;;;;;2.30;0.75;;;3.50;99.90;;;;;;5030460;28;20200;-79
2022/01/09 06:04:22;;;;;;;1.00;0.70;;;3.50;99.90;;;;;;5021984;28;20275;-80
2022/01/09 06:06:49;;;;;;;1.60;0.77;;;3.50;99.90;;;;;;5033217;28;20219;-79
2022/01/09 06:09:16;;;;;;;3.78;1.10;;;3.50;99.90;;;;;;5031231;28;20273;-79
2022/01/09 06:11:43;;;;;;;2.97;1.20;;;3.60;99.90;;;;;;5033820;28;20195;-79
2022/01/09 06:14:10;;;;;;;2.28;1.30;;;3.60;99.90;;;;;;5048009;28;20254;-80
2022/01/09 06:16:37;;;;;;;2.58;1.00;;;3.60;99.90;;;;;;5057437;28;20249;-78
2022/01/09 06:19:05;;;;;;;2.58;1.02;;;3.70;99.90;;;;;;5056682;28;20204;-79
2022/01/09 06:21:32;;;;;;;5.22;2.00;;;3.70;99.90;;;;;;5051822;28;20195;-79
2022/01/09 06:23:59;;;;;;;1.25;0.68;;;3.70;99.90;;;;;;5044972;28;20305;-79
2022/01/09 06:26:26;;;;;;;2.55;1.15;;;3.80;99.90;;;;;;5049056;28;20212;-79
2022/01/09 06:28:53;;;;;;;1.65;0.90;;;3.80;99.90;;;;;;5046370;28;20201;-79
2022/01/09 06:31:20;;;;;;;2.78;0.85;;;3.90;99.90;;;;;;5048839;28;20219;-79
2022/01/09 06:33:47;;;;;;;1.08;0.70;;;3.90;99.90;;;;;;5054858;28;20197;-80
2022/01/09 06:36:16;;;;;;;1.73;0.77;;;3.90;99.90;;;;;;5055137;28;20247;-79
2022/01/09 06:38:43;;;;;;;0.80;0.70;;;3.90;99.90;;;;;;5035303;28;20686;-79
2022/01/09 06:41:10;;;;;;;2.50;0.90;;;3.90;99.90;;;;;;5034925;28;20235;-78
2022/01/09 06:43:37;;;;;;;1.75;0.80;;;3.90;99.90;;;;;;5034825;28;20195;-79
2022/01/09 06:46:04;;;;;;;2.08;0.90;;;3.90;99.90;;;;;;5033093;28;20216;-79
2022/01/09 06:48:31;;;;;;;1.95;0.70;;;3.90;99.90;;;;;;5032603;28;20208;-79
2022/01/09 06:50:58;;;;;;;1.35;0.70;;;3.90;99.90;;;;;;5032278;28;20227;-79
2022/01/09 06:53:26;;;;;;;1.70;0.80;;;3.90;99.90;;;;;;5021331;28;20201;-79
2022/01/09 06:55:53;;;;;;;1.40;0.80;;;4.00;99.90;;;;;;5038711;28;20228;-79
2022/01/09 06:58:21;;;;;;;0.90;0.80;;;3.90;99.90;;;;;;5032398;28;20216;-79
2022/01/09 07:00:48;;;;;;;3.40;1.05;;;3.90;99.90;;;;;;5032949;28;20205;-85
2022/01/09 07:03:15;;;;;;;1.90;1.20;;;3.90;99.90;;;;;;5023397;28;20640;-81
2022/01/09 07:05:42;;;;;;;3.72;1.30;;;3.90;99.90;;;;;;5031157;28;20215;-79
2022/01/09 07:08:09;;;;;;;1.30;1.10;;;3.90;99.90;;;;;;5029160;28;20634;-81
2022/01/09 07:10:37;;;;;;;2.03;1.20;;;3.80;99.90;;;;;;5030416;28;20235;-78
2022/01/09 07:13:04;;;;;;;1.52;1.27;;;3.90;99.90;;;;;;5027552;28;20199;-79
2022/01/09 07:15:31;;;;;;;3.10;1.20;;;3.90;99.90;;;;;;5028827;28;20643;-79
2022/01/09 07:17:58;;;;;;;2.83;1.50;;;3.90;99.90;;;;;;5019939;28;20200;-80
2022/01/09 07:20:25;;;;;;;2.95;1.90;;;3.80;99.90;;;;;;5022877;28;20210;-79
2022/01/09 07:22:52;;;;;;;4.95;1.77;;;3.80;99.90;;;;;;5028160;28;20204;-79
2022/01/09 07:25:19;;;;;;;3.80;2.03;;;3.90;99.90;;;;;;5023299;28;20313;-79
2022/01/09 07:27:48;;;;;;;6.90;1.80;;;3.90;99.90;;;;;;5028846;28;20261;-80
2022/01/09 07:30:15;;;;;;;2.85;1.45;;;3.90;99.90;;;;;;5029664;28;20314;-80
2022/01/09 07:32:42;;;;;;;3.75;1.70;;;3.90;99.90;;;;;;5028870;28;20253;-81
2022/01/09 07:35:10;;;;;;;7.05;2.08;;;3.90;99.90;;;;;;5026982;28;20225;-79
2022/01/09 07:37:37;;;;;;;4.22;1.60;;;3.90;99.90;;;;;;5029449;28;20582;-80
2022/01/09 07:40:05;;;;;;;5.40;1.60;;;4.00;99.90;;;;;;5019131;28;20749;-79
2022/01/09 07:42:32;;;;;;;5.90;1.70;;;4.00;99.90;;;;;;5025652;28;20206;-79
2022/01/09 07:45:00;;;;;;;2.63;1.50;;;4.00;99.90;;;;;;5026698;28;20212;-79
2022/01/09 07:47:27;;;;;;;2.13;1.48;;;4.00;99.90;;;;;;5028435;28;20208;-79
2022/01/09 07:49:54;;;;;;;1.67;1.20;;;4.00;99.90;;;;;;5025631;28;20222;-79
2022/01/09 07:52:21;;;;;;;4.20;1.85;;;4.00;99.90;;;;;;5029850;28;20332;-79
2022/01/09 07:54:48;;;;;;;2.95;1.35;;;4.10;99.90;;;;;;5028093;28;20213;-79
2022/01/09 07:57:15;;;;;;;2.95;1.40;;;4.10;99.90;;;;;;5025817;28;20235;-79
2022/01/09 07:59:42;;;;;;;3.90;1.35;;;4.10;99.90;;;;;;5023516;28;20674;-79
2022/01/09 08:02:11;;;;;;;4.03;1.42;;;4.00;99.90;;;;;;5027407;28;20234;-76
2022/01/09 08:04:38;;;;;;;5.65;1.40;;;4.00;99.90;;;;;;5027475;28;20575;-81
2022/01/09 08:07:06;;;;;;;3.95;1.45;;;4.10;99.90;;;;;;5026460;28;20218;-82
2022/01/09 08:09:33;;;;;;;2.72;1.30;;;4.10;99.90;;;;;;5027587;28;20230;-82
2022/01/09 08:12:00;;;;;;;2.53;1.40;;;4.10;99.90;;;;;;5030137;28;20324;-83
2022/01/09 08:14:27;;;;;;;8.30;1.60;;;3.90;99.90;;;;;;5029128;28;21254;-83
2022/01/09 08:16:56;;;;;;;2.60;1.73;;;3.90;99.90;;;;;;5025199;28;20198;-83
2022/01/09 08:19:24;;;;;;;3.33;1.48;;;3.90;99.90;;;;;;5023174;28;20292;-84
2022/01/09 08:21:51;;;;;;;2.20;1.30;;;3.90;99.90;;;;;;5008797;28;20302;-80
2022/01/09 08:24:18;;;;;;;2.40;1.20;;;4.00;99.90;;;;;;5023377;28;22026;-81
2022/01/09 08:26:45;;;;;;;1.65;1.02;;;4.00;99.90;;;;;;5023878;28;20204;-80
2022/01/09 08:29:14;;;;;;;3.72;2.67;;;4.00;99.90;;;;;;5026005;28;20198;-80
2022/01/09 08:31:41;;;;;;;6.63;1.33;;;4.00;99.90;;;;;;5027379;28;20205;-79
2022/01/09 08:34:08;;;;;;;9.13;1.60;;;4.10;99.90;;;;;;5024958;28;20292;-75
2022/01/09 08:36:37;;;;;;;5.85;1.65;;;4.10;99.90;;;;;;5025207;28;20241;-75
2022/01/09 08:39:05;;;;;;;2.75;1.17;;;4.10;99.90;;;;;;5021504;28;20196;-74
2022/01/09 08:41:32;;;;;;;3.88;1.90;;;4.20;99.90;;;;;;5019109;28;20225;-74
2022/01/09 08:44:00;;;;;;;4.18;1.25;;;4.20;99.90;;;;;;5027352;28;20203;-75
2022/01/09 08:46:27;;;;;;;3.50;1.60;;;4.30;99.90;;;;;;5025841;28;20694;-74
2022/01/09 08:48:54;;;;;;;4.90;1.80;;;4.40;99.90;;;;;;5025683;28;21261;-74
2022/01/09 08:51:22;;;;;;;3.72;1.33;;;4.50;99.90;;;;;;5025737;28;20229;-74
2022/01/09 08:53:51;;;;;;;3.63;1.55;;;4.60;99.90;;;;;;5026247;28;20678;-76
2022/01/09 08:56:19;;;;;;;4.55;1.80;;;4.60;99.90;;;;;;5023571;28;20217;-74
2022/01/09 08:58:46;;;;;;;4.40;1.40;;;4.60;99.90;;;;;;5021988;28;20204;-74
2022/01/09 09:01:13;;;;;;;2.65;1.30;;;4.50;99.90;;;;;;5023067;28;20210;-74
2022/01/09 09:03:41;;;;;;;2.25;1.17;;;4.50;99.90;;;;;;5023837;28;20219;-75
2022/01/09 09:06:10;;;;;;;2.95;1.65;;;4.60;99.90;;;;;;5017927;28;20215;-76
2022/01/09 09:08:38;;;;;;;3.80;1.60;;;4.60;99.90;;;;;;5020993;28;20208;-75
2022/01/09 09:11:07;;;;;;;4.82;1.25;;;4.70;99.90;;;;;;5021768;28;20232;-75
2022/01/09 09:13:35;;;;;;;3.80;1.35;;;4.70;99.90;;;;;;5022283;28;20308;-75
2022/01/09 09:16:02;;;;;;;5.38;1.60;;;4.80;99.90;;;;;;5023237;28;20307;-76
2022/01/09 09:18:29;;;;;;;3.65;1.63;;;4.80;99.90;;;;;;5020946;28;20205;-75
2022/01/09 09:20:57;;;;;;;3.33;1.48;;;4.80;99.90;;;;;;5019198;28;20193;-75
2022/01/09 09:23:24;;;;;;;4.97;1.60;;;4.80;99.90;;;;;;5030138;28;20217;-74
2022/01/09 09:25:51;;;;;;;4.80;1.73;;;4.80;99.90;;;;;;5036810;28;20274;-74
2022/01/09 09:28:20;;;;;;;4.07;1.23;;;4.90;99.90;;;;;;5025101;28;20624;-75
2022/01/09 09:30:47;;;;;;;3.53;1.45;;;4.90;99.90;;;;;;5026975;28;20738;-76
2022/01/09 09:33:14;;;;;;;3.53;1.30;;;4.90;99.90;;;;;;5032011;28;20208;-75
2022/01/09 09:35:41;;;;;;;3.55;1.70;;;4.80;99.90;;;;;;5025174;28;20735;-75
2022/01/09 09:38:08;;;;;;;3.35;1.30;;;4.70;99.90;;;;;;5024541;28;20283;-75
2022/01/09 09:40:35;;;;;;;3.42;1.40;;;4.80;99.90;;;;;;5028284;28;20232;-75
2022/01/09 09:43:02;;;;;;;3.75;1.10;;;4.80;99.90;;;;;;5026082;28;20690;-76
2022/01/09 09:45:30;;;;;;;3.97;1.60;;;4.90;99.90;;;;;;5027053;28;20225;-75
2022/01/09 09:47:57;;;;;;;5.72;1.50;;;5.10;99.90;;;;;;5027668;28;20295;-75
2022/01/09 09:50:25;;;;;;;5.55;1.50;;;5.10;99.90;;;;;;5025853;28;20226;-78
2022/01/09 09:52:52;;;;;;;3.85;1.83;;;5.10;99.90;;;;;;5026463;28;20237;-77
2022/01/09 09:55:19;;;;;;;2.80;1.20;;;5.20;99.90;;;;;;5030340;28;20279;-76
2022/01/09 09:57:47;;;;;;;3.25;1.17;;;5.30;99.90;;;;;;5026942;28;20716;-75
2022/01/09 10:00:17;;;;;;;2.65;1.15;;;5.40;99.90;;;;;;5030114;28;20240;-75
2022/01/09 10:02:47;;;;;;;2.53;1.40;;;5.40;99.90;;;;;;5027974;28;20715;-75
2022/01/09 10:05:16;;;;;;;2.63;1.50;;;5.30;99.90;;;;;;5019761;28;20237;-75
2022/01/09 10:07:43;;;;;;;7.35;2.85;;;5.20;99.90;;;;;;5028393;28;20205;-75
2022/01/09 10:10:14;;;;;;;3.60;1.35;;;5.10;99.90;;;;;;5030049;28;20236;-75
2022/01/09 10:12:41;;;;;;;3.95;1.63;;;5.10;99.90;;;;;;5024691;28;20857;-75
2022/01/09 10:15:14;;;;;;;5.15;1.88;;;5.00;99.90;;;;;;5026657;28;20221;-75
2022/01/09 10:17:43;;;;;;;4.03;1.23;;;5.00;99.90;;;;;;5028120;28;20229;-75
2022/01/09 10:20:14;;;;;;;3.47;1.30;;;5.00;99.90;;;;;;5029396;28;20212;-75
2022/01/09 10:22:44;;;;;;;3.40;1.25;;;5.00;99.90;;;;;;5020593;28;20288;-75
2022/01/09 10:25:24;;;;;;;2.92;1.58;;;5.10;99.90;;;;;;5028993;28;20275;-75
2022/01/09 10:27:55;;;;;;;5.60;1.40;;;5.20;99.90;;;;;;5023221;28;20282;-75
2022/01/09 10:30:23;;;;;;;5.10;1.90;;;5.20;99.90;;;;;;5035791;28;20227;-75
2022/01/09 10:32:55;;;;;;;7.57;1.65;;;5.10;99.90;;;;;;5032856;28;20719;-75
2022/01/09 10:35:25;;;;;;;1.60;1.30;;;5.10;99.90;;;;;;5023464;28;20232;-73
2022/01/09 10:38:05;;;;;;;2.75;1.25;;;5.00;99.90;;;;;;5028294;28;20219;-74
2022/01/09 10:40:36;;;;;;;3.13;1.20;;;4.90;99.90;;;;;;5028316;28;20196;-74
2022/01/09 10:43:06;;;;;;;6.07;1.35;;;4.90;99.90;;;;;;5028569;28;20205;-75
2022/01/09 10:45:33;;;;;;;6.00;2.20;;;4.90;99.90;;;;;;5017099;28;20235;-77
2022/01/09 10:48:06;;;;;;;5.40;1.63;;;5.00;99.90;;;;;;5020869;28;20204;-76
2022/01/09 10:50:38;;;;;;;3.53;1.40;;;5.10;99.90;;;;;;5026363;28;20751;-75
2022/01/09 10:53:34;;;;;;;1.65;1.08;;;5.30;99.90;;;;;;5021992;28;20296;-75
2022/01/09 10:56:04;;;;;;;5.05;1.65;;;5.50;99.90;;;;;;4987996;28;20213;-75
2022/01/09 10:58:34;;;;;;;6.95;1.30;;;5.50;99.90;;;;;;5021266;28;20220;-75
2022/01/09 11:01:16;;;;;;;2.75;1.40;;;5.60;99.90;;;;;;5025044;28;20248;-74
2022/01/09 11:03:45;;;;;;;1.55;0.85;;;5.60;99.90;;;;;;5017761;28;20297;-75
2022/01/09 11:06:14;;;;;;;2.90;0.93;;;5.50;99.90;;;;;;5022469;28;20194;-74
2022/01/09 11:08:42;;;;;;;1.35;0.80;;;5.40;99.90;;;;;;5025608;28;20204;-75
2022/01/09 11:11:21;;;;;;;2.78;0.90;;;5.60;99.90;;;;;;5028504;28;20224;-74
2022/01/09 11:13:51;;;;;;;2.50;1.00;;;5.70;99.90;;;;;;5028224;28;20201;-74
2022/01/09 11:16:33;;;;;;;2.28;1.42;;;6.20;99.90;;;;;;5030293;28;20194;-74
2022/01/09 11:19:03;;;;;;;1.88;1.20;;;6.20;99.90;;;;;;5027710;28;20240;-74
2022/01/09 11:21:32;;;;;;;2.17;1.20;;;6.10;99.90;;;;;;5019631;28;20241;-74
2022/01/09 11:24:29;;;;;;;1.98;1.02;;;5.90;99.90;;;;;;5017237;28;20220;-74
2022/01/09 11:27:00;;;;;;;3.05;1.40;;;5.70;99.90;;;;;;5015209;28;20202;-75
2022/01/09 11:29:36;;;;;;;2.55;1.17;;;5.70;99.90;;;;;;5023244;28;20197;-75
2022/01/09 11:32:21;;;;;;;2.90;1.40;;;5.40;99.90;;;;;;5026328;28;20231;-75
2022/01/09 11:34:53;;;;;;;4.55;1.30;;;5.20;99.90;;;;;;5017245;28;20620;-75
2022/01/09 11:37:44;;;;;;;4.05;1.70;;;5.10;99.90;;;;;;5022120;28;20190;-76
2022/01/09 11:40:23;;;;;;;2.88;1.50;;;5.10;99.90;;;;;;5019418;28;20733;-74
2022/01/09 11:43:05;;;;;;;5.20;1.70;;;5.10;99.90;;;;;;5020462;28;20201;-74
2022/01/09 11:45:49;;;;;;;3.15;1.30;;;5.20;99.90;;;;;;5025785;28;20278;-75
2022/01/09 11:48:19;;;;;;;4.30;1.40;;;5.20;99.90;;;;;;5025973;28;20303;-75
2022/01/09 11:51:14;;;;;;;3.30;1.60;;;5.20;99.90;;;;;;5024369;28;20225;-75
2022/01/09 11:54:11;;;;;;;2.58;1.20;;;5.20;99.90;;;;;;5026869;28;20198;-76
2022/01/09 11:56:45;;;;;;;3.05;1.52;;;5.40;99.90;;;;;;5017138;28;20194;-75
2022/01/09 11:59:20;;;;;;;2.75;1.30;;;5.40;99.90;;;;;;5026152;28;20615;-76
2022/01/09 12:01:47;;;;;;;5.22;1.60;;;5.20;99.90;;;;;;5028029;28;20366;-75
2022/01/09 12:04:52;;;;;;;5.05;1.75;;;5.00;99.90;;;;;;5027547;28;20233;-76
2022/01/09 12:07:42;;;;;;;4.60;1.85;;;4.80;99.90;;;;;;5023147;28;20629;-75
2022/01/09 12:10:30;;;;;;;3.97;1.23;;;4.70;99.90;;;;;;5023819;28;20285;-75
2022/01/09 12:12:58;;;;;;;5.22;1.42;;;4.70;99.90;;;;;;5025830;28;20199;-75
2022/01/09 12:15:39;;;;;;;6.25;2.30;;;4.70;99.90;;;;;;5020711;28;20762;-70
2022/01/09 12:18:08;;;;;;;3.70;1.70;;;4.70;99.90;;;;;;5024110;28;20194;-75
2022/01/09 12:20:42;;;;;;;4.13;1.95;;;4.80;99.90;;;;;;5017626;28;20190;-79
2022/01/09 12:23:20;;;;;;;3.17;1.75;;;4.80;99.90;;;;;;5024707;28;20565;-83
2022/01/09 12:25:54;;;;;;;2.63;1.40;;;4.90;99.90;;;;;;5023049;28;20200;-75
2022/01/09 12:28:24;;;;;;;5.15;1.95;;;4.80;99.90;;;;;;5029597;28;20245;-76
2022/01/09 12:30:57;;;;;;;6.18;2.10;;;4.80;99.90;;;;;;5019610;28;20225;-75
2022/01/09 12:33:49;;;;;;;3.10;1.77;;;4.70;99.90;;;;;;5022195;28;20213;-75
2022/01/09 12:36:22;;;;;;;4.40;1.70;;;4.50;99.90;;;;;;5016553;28;20190;-76
2022/01/09 12:38:55;;;;;;;5.07;2.00;;;4.60;99.90;;;;;;5029810;28;20661;-75
2022/01/09 12:41:25;;;;;;;4.22;2.00;;;4.70;99.90;;;;;;5029999;28;20202;-77
2022/01/09 12:44:00;;;;;;;4.50;2.00;;;4.80;99.90;;;;;;5029858;28;20319;-77
2022/01/09 12:46:29;;;;;;;3.80;1.60;;;4.90;99.90;;;;;;5030090;28;20197;-76
2022/01/09 12:48:58;;;;;;;5.15;2.00;;;5.00;99.90;;;;;;5027361;28;20681;-75
2022/01/09 12:51:26;;;;;;;7.47;2.30;;;5.20;99.90;;;;;;5021806;28;20218;-75
2022/01/09 12:53:56;;;;;;;4.65;1.40;;;5.30;99.90;;;;;;5042113;28;20222;-76
2022/01/09 12:56:26;;;;;;;4.25;2.60;;;5.40;99.90;;;;;;5049416;28;20200;-75
2022/01/09 12:58:55;;;;;;;5.05;2.00;;;5.40;99.90;;;;;;5041865;28;20209;-76
2022/01/09 13:01:24;;;;;;;1.83;1.70;;;5.40;99.90;;;;;;5030916;28;20225;-76
2022/01/09 13:03:53;;;;;;;5.47;1.60;;;5.20;99.90;;;;;;5018556;28;20221;-74
2022/01/09 13:06:24;;;;;;;4.05;1.20;;;4.90;99.90;;;;;;5033128;28;20259;-75
2022/01/09 13:08:54;;;;;;;3.10;1.40;;;4.60;99.90;;;;;;5032580;28;20198;-76
2022/01/09 13:11:25;;;;;;;3.15;1.40;;;4.40;99.90;;;;;;5042273;28;20289;-77